Granger, IN (46530)

11:37 AM EST on December 21, 2014 (GMT -0500)
Milton Township | Change Station
CLOSE
Current Station
Personal Weather Station
Location: Niles, MI
Elevation: 846 ft
Nearby Weather Stations

Elev 846 ft 41.77 °N, 86.17 °W | Updated 0 second ago

Overcast
Overcast
32.1 °F
Feels Like 32 °F
N
0.0
Wind Variable Wind from SE
Gusts 0.0 mph

Today
High -- | Low -- °F
--% Chance of Precip.
Yesterday
High -- | Low -- °F
Precip. -- in
8:08 AM 5:17 PM
Waning Crescent, 0% visible
Pressure 30.29 in
Visibility 6.0 miles
Clouds Overcast 5500 ft
Windchill 32 °F
Dew Point 27 °F
Humidity 80%
Rainfall 0.00 in
Snow Depth Not available.
UV 0.8 out of 12
Pollen .10 out of 12
Air Quality Not available.
Flu Activity Not available.
METAR KSBN 211554Z 19008KT 6SM HZ OVC055 01/M03 A3026 RMK AO2 SLP255 T00061033

More Conditions Fewer Conditions

Pressure 30.29 in
Visibility 6.0 miles
Clouds Overcast 5500 ft
Windchill 32 °F
Dew Point 27 °F
Humidity 80%
Rainfall 0.00 in
Snow Depth Not available.
UV 0.8 out of 12
Pollen .10 out of 12
Air Quality Not available.
Flu Activity Not available.
METAR KSBN 211554Z 19008KT 6SM HZ OVC055 01/M03 A3026 RMK AO2 SLP255 T00061033

More Conditions Fewer Conditions

10-Day Weather Forecast

Almanac

Astronomy

Dec. 21, 2014 Rise Set
Actual Time
Civil Twilight
Nautical Twilight
Astronomical Twilight
Moon
Length of Visible Light
Length of Day
Tomorrow will be .
, % of the Moon is Illuminated

Today's Extremes

State Highs State Lows

Community

WunderPhotos

Upload Photos

1,779,430 photos uploaded!

WunderBlogs® & News

Nearby

Air Quality

  Air Quality AQ Index Pollutant
Not available.

Snow Depth

Station Depth Elevation

Earthquake Activity

City Distance Mag. Time & Date
Minimum magnitude displayed is 2.5.

Coastal Water Temperatures

Place Temperature

Nearby Weather Stations